sensor_id;sensor_type;location;lat;lon;timestamp;pressure;altitude;pressure_sealevel;temperature;humidity
9325;BME280;4701;51.566;6.776;2023-01-20T07:03:03;101015.72;;;-0.09;100.00
9325;BME280;4701;51.566;6.776;2023-01-20T07:05:05;101012.09;;;-0.01;100.00
9325;BME280;4701;51.566;6.776;2023-01-20T07:07:10;101006.38;;;0.09;100.00
9325;BME280;4701;51.566;6.776;2023-01-20T07:09:12;101011.38;;;0.12;100.00
9325;BME280;4701;51.566;6.776;2023-01-20T07:11:14;101022.16;;;0.18;100.00
9325;BME280;4701;51.566;6.776;2023-01-20T07:13:16;101020.50;;;0.17;100.00
9325;BME280;4701;51.566;6.776;2023-01-20T07:15:18;101010.34;;;0.34;100.00
9325;BME280;4701;51.566;6.776;2023-01-20T07:17:20;101015.50;;;0.35;100.00
9325;BME280;4701;51.566;6.776;2023-01-20T07:19:23;101030.19;;;0.40;100.00
9325;BME280;4701;51.566;6.776;2023-01-20T07:21:26;101023.16;;;0.38;100.00
9325;BME280;4701;51.566;6.776;2023-01-20T07:23:28;101029.22;;;0.26;100.00
9325;BME280;4701;51.566;6.776;2023-01-20T07:25:31;101031.91;;;0.26;100.00
9325;BME280;4701;51.566;6.776;2023-01-20T07:27:33;101042.84;;;0.24;100.00
9325;BME280;4701;51.566;6.776;2023-01-20T07:29:35;101038.38;;;0.31;100.00
9325;BME280;4701;51.566;6.776;2023-01-20T07:31:37;101043.47;;;0.48;100.00
9325;BME280;4701;51.566;6.776;2023-01-20T07:33:39;101056.38;;;0.37;100.00
9325;BME280;4701;51.566;6.776;2023-01-20T07:35:43;101052.81;;;0.30;100.00
9325;BME280;4701;51.566;6.776;2023-01-20T07:37:45;101059.25;;;0.36;100.00
9325;BME280;4701;51.566;6.776;2023-01-20T07:39:46;101056.50;;;0.29;100.00
9325;BME280;4701;51.566;6.776;2023-01-20T07:41:48;101067.41;;;0.28;100.00
9325;BME280;4701;51.566;6.776;2023-01-20T07:43:51;101071.19;;;0.33;100.00
9325;BME280;4701;51.566;6.776;2023-01-20T07:45:54;101077.63;;;0.39;100.00
9325;BME280;4701;51.566;6.776;2023-01-20T07:47:56;101077.31;;;0.49;100.00
9325;BME280;4701;51.566;6.776;2023-01-20T07:49:58;101082.09;;;0.53;100.00
9325;BME280;4701;51.566;6.776;2023-01-20T07:52:01;101087.97;;;0.63;100.00
9325;BME280;4701;51.566;6.776;2023-01-20T07:54:03;101082.41;;;0.65;100.00
9325;BME280;4701;51.566;6.776;2023-01-20T07:56:07;101087.44;;;0.53;100.00
9325;BME280;4701;51.566;6.776;2023-01-20T07:58:09;101083.06;;;0.46;100.00
9325;BME280;4701;51.566;6.776;2023-01-20T08:00:11;101089.75;;;0.56;100.00
9325;BME280;4701;51.566;6.776;2023-01-20T08:02:13;101086.25;;;0.56;100.00
9325;BME280;4701;51.566;6.776;2023-01-20T08:04:15;101089.06;;;0.48;100.00
9325;BME280;4701;51.566;6.776;2023-01-20T08:06:20;101092.31;;;0.43;100.00
9325;BME280;4701;51.566;6.776;2023-01-20T08:08:24;101091.69;;;0.41;100.00
9325;BME280;4701;51.566;6.776;2023-01-20T08:10:27;101102.47;;;0.48;100.00
9325;BME280;4701;51.566;6.776;2023-01-20T08:12:29;101096.22;;;0.41;100.00
9325;BME280;4701;51.566;6.776;2023-01-20T08:14:31;101096.97;;;0.34;100.00
9325;BME280;4701;51.566;6.776;2023-01-20T08:16:33;101107.44;;;0.29;100.00
9325;BME280;4701;51.566;6.776;2023-01-20T08:18:36;101109.28;;;0.29;100.00
9325;BME280;4701;51.566;6.776;2023-01-20T08:20:38;101104.28;;;0.26;100.00
9325;BME280;4701;51.566;6.776;2023-01-20T08:22:40;101107.63;;;0.28;100.00
9325;BME280;4701;51.566;6.776;2023-01-20T08:24:44;101108.09;;;0.31;100.00
9325;BME280;4701;51.566;6.776;2023-01-20T08:26:45;101106.38;;;0.24;100.00
9325;BME280;4701;51.566;6.776;2023-01-20T08:28:47;101112.03;;;0.35;100.00
9325;BME280;4701;51.566;6.776;2023-01-20T08:30:49;101107.00;;;0.47;100.00
9325;BME280;4701;51.566;6.776;2023-01-20T08:32:51;101111.88;;;0.58;100.00
9325;BME280;4701;51.566;6.776;2023-01-20T08:34:53;101116.75;;;0.55;100.00
9325;BME280;4701;51.566;6.776;2023-01-20T08:36:55;101110.06;;;0.65;100.00
9325;BME280;4701;51.566;6.776;2023-01-20T08:38:59;101119.97;;;0.65;100.00
9325;BME280;4701;51.566;6.776;2023-01-20T08:41:06;101111.41;;;0.55;100.00
9325;BME280;4701;51.566;6.776;2023-01-20T08:43:09;101116.59;;;0.56;100.00
9325;BME280;4701;51.566;6.776;2023-01-20T08:45:11;101118.13;;;0.65;100.00
9325;BME280;4701;51.566;6.776;2023-01-20T08:47:13;101119.59;;;0.68;100.00
9325;BME280;4701;51.566;6.776;2023-01-20T08:49:16;101123.06;;;0.68;100.00
9325;BME280;4701;51.566;6.776;2023-01-20T08:51:19;101123.84;;;0.62;100.00
9325;BME280;4701;51.566;6.776;2023-01-20T08:53:21;101127.00;;;0.66;100.00
9325;BME280;4701;51.566;6.776;2023-01-20T08:55:23;101133.63;;;0.70;100.00
9325;BME280;4701;51.566;6.776;2023-01-20T08:57:27;101135.28;;;0.71;100.00
9325;BME280;4701;51.566;6.776;2023-01-20T08:59:29;101138.09;;;0.63;100.00
9325;BME280;4701;51.566;6.776;2023-01-20T09:01:33;101145.13;;;0.64;100.00
9325;BME280;4701;51.566;6.776;2023-01-20T09:03:37;101133.00;;;0.68;100.00
9325;BME280;4701;51.566;6.776;2023-01-20T09:05:40;101130.69;;;0.65;100.00
9325;BME280;4701;51.566;6.776;2023-01-20T09:07:42;101143.84;;;0.60;100.00
9325;BME280;4701;51.566;6.776;2023-01-20T09:09:45;101144.47;;;0.62;100.00
9325;BME280;4701;51.566;6.776;2023-01-20T09:11:47;101156.22;;;0.61;100.00
9325;BME280;4701;51.566;6.776;2023-01-20T09:13:54;101157.38;;;0.52;100.00
9325;BME280;4701;51.566;6.776;2023-01-20T09:15:57;101145.44;;;0.54;100.00
9325;BME280;4701;51.566;6.776;2023-01-20T09:17:59;101149.00;;;0.61;100.00
9325;BME280;4701;51.566;6.776;2023-01-20T09:20:01;101148.13;;;0.54;100.00
9325;BME280;4701;51.566;6.776;2023-01-20T09:22:03;101154.97;;;0.57;100.00
9325;BME280;4701;51.566;6.776;2023-01-20T09:24:05;101156.63;;;0.58;100.00
9325;BME280;4701;51.566;6.776;2023-01-20T09:26:08;101154.97;;;0.57;100.00
9325;BME280;4701;51.566;6.776;2023-01-20T09:28:11;101164.16;;;0.48;100.00
9325;BME280;4701;51.566;6.776;2023-01-20T09:30:15;101154.38;;;0.61;100.00
9325;BME280;4701;51.566;6.776;2023-01-20T09:32:17;101160.00;;;0.66;100.00
9325;BME280;4701;51.566;6.776;2023-01-20T09:34:20;101154.91;;;0.71;100.00
9325;BME280;4701;51.566;6.776;2023-01-20T09:36:23;101161.56;;;0.75;100.00
9325;BME280;4701;51.566;6.776;2023-01-20T09:38:27;101156.38;;;0.74;100.00
9325;BME280;4701;51.566;6.776;2023-01-20T09:40:53;101148.84;;;0.84;100.00
9325;BME280;4701;51.566;6.776;2023-01-20T09:43:27;101150.69;;;0.84;100.00
9325;BME280;4701;51.566;6.776;2023-01-20T09:45:53;101155.13;;;0.98;100.00
9325;BME280;4701;51.566;6.776;2023-01-20T09:48:04;101156.19;;;1.03;100.00
9325;BME280;4701;51.566;6.776;2023-01-20T09:50:24;101150.69;;;1.11;100.00
9325;BME280;4701;51.566;6.776;2023-01-20T09:52:46;101164.25;;;1.03;100.00
9325;BME280;4701;51.566;6.776;2023-01-20T09:55:08;101154.00;;;1.13;100.00
9325;BME280;4701;51.566;6.776;2023-01-20T09:57:12;101160.59;;;1.11;100.00
9325;BME280;4701;51.566;6.776;2023-01-20T09:59:19;101166.41;;;1.14;100.00
9325;BME280;4701;51.566;6.776;2023-01-20T10:01:29;101163.28;;;1.11;100.00
9325;BME280;4701;51.566;6.776;2023-01-20T10:03:37;101163.09;;;1.12;100.00
9325;BME280;4701;51.566;6.776;2023-01-20T10:05:43;101164.47;;;1.30;100.00
9325;BME280;4701;51.566;6.776;2023-01-20T10:07:50;101164.41;;;1.23;100.00
9325;BME280;4701;51.566;6.776;2023-01-20T10:09:58;101163.47;;;1.37;100.00
9325;BME280;4701;51.566;6.776;2023-01-20T10:12:09;101163.31;;;1.45;100.00
9325;BME280;4701;51.566;6.776;2023-01-20T10:14:17;101166.69;;;1.54;100.00
9325;BME280;4701;51.566;6.776;2023-01-20T10:16:28;101173.03;;;1.46;100.00
9325;BME280;4701;51.566;6.776;2023-01-20T10:18:38;101167.59;;;1.61;100.00
9325;BME280;4701;51.566;6.776;2023-01-20T10:20:44;101165.50;;;1.63;99.70
9325;BME280;4701;51.566;6.776;2023-01-20T10:22:51;101166.38;;;1.70;99.29
9325;BME280;4701;51.566;6.776;2023-01-20T10:24:57;101166.63;;;1.75;99.00
9325;BME280;4701;51.566;6.776;2023-01-20T10:27:01;101166.59;;;1.69;98.73
9325;BME280;4701;51.566;6.776;2023-01-20T10:29:06;101163.44;;;1.65;99.03
9325;BME280;4701;51.566;6.776;2023-01-20T10:31:13;101160.38;;;1.68;99.27
9325;BME280;4701;51.566;6.776;2023-01-20T10:33:26;101168.78;;;1.59;98.92
9325;BME280;4701;51.566;6.776;2023-01-20T10:35:33;101163.97;;;1.47;99.02
9325;BME280;4701;51.566;6.776;2023-01-20T10:37:37;101160.84;;;1.44;98.77
9325;BME280;4701;51.566;6.776;2023-01-20T10:39:43;101162.66;;;1.37;98.42
9325;BME280;4701;51.566;6.776;2023-01-20T10:41:50;101157.03;;;1.32;99.04
9325;BME280;4701;51.566;6.776;2023-01-20T10:43:55;101156.41;;;1.30;98.47
9325;BME280;4701;51.566;6.776;2023-01-20T10:48:33;101164.56;;;1.43;99.00
9325;BME280;4701;51.566;6.776;2023-01-20T10:50:46;101169.16;;;1.49;98.44
9325;BME280;4701;51.566;6.776;2023-01-20T10:53:04;101159.41;;;1.48;98.15
9325;BME280;4701;51.566;6.776;2023-01-20T10:55:16;101166.22;;;1.44;96.95
9325;BME280;4701;51.566;6.776;2023-01-20T10:57:21;101172.81;;;1.41;96.97
9325;BME280;4701;51.566;6.776;2023-01-20T10:59:28;101174.81;;;1.33;96.74
9325;BME280;4701;51.566;6.776;2023-01-20T11:01:31;101164.91;;;1.33;97.35
9325;BME280;4701;51.566;6.776;2023-01-20T11:03:39;101167.44;;;1.41;97.67
9325;BME280;4701;51.566;6.776;2023-01-20T11:05:42;101164.59;;;1.49;96.83
9325;BME280;4701;51.566;6.776;2023-01-20T11:07:45;101164.00;;;1.54;97.31
9325;BME280;4701;51.566;6.776;2023-01-20T11:09:48;101165.75;;;1.68;96.99
9325;BME280;4701;51.566;6.776;2023-01-20T11:11:51;101169.69;;;1.72;96.41
9325;BME280;4701;51.566;6.776;2023-01-20T11:13:53;101173.66;;;1.76;96.46
9325;BME280;4701;51.566;6.776;2023-01-20T11:15:59;101162.91;;;1.76;95.70
9325;BME280;4701;51.566;6.776;2023-01-20T11:18:24;101167.63;;;1.68;95.52
9325;BME280;4701;51.566;6.776;2023-01-20T11:20:29;101163.25;;;1.67;95.94
9325;BME280;4701;51.566;6.776;2023-01-20T11:22:33;101158.38;;;1.77;95.88
9325;BME280;4701;51.566;6.776;2023-01-20T11:24:40;101167.25;;;1.77;95.29
9325;BME280;4701;51.566;6.776;2023-01-20T11:26:43;101164.97;;;1.74;95.76
9325;BME280;4701;51.566;6.776;2023-01-20T11:28:51;101171.81;;;1.83;95.50
9325;BME280;4701;51.566;6.776;2023-01-20T11:30:54;101169.81;;;1.92;94.87
9325;BME280;4701;51.566;6.776;2023-01-20T11:33:07;101164.03;;;1.95;94.70
9325;BME280;4701;51.566;6.776;2023-01-20T11:35:20;101163.22;;;2.01;95.02
9325;BME280;4701;51.566;6.776;2023-01-20T11:37:25;101173.97;;;2.01;94.50
9325;BME280;4701;51.566;6.776;2023-01-20T11:39:28;101159.72;;;2.01;94.31
9325;BME280;4701;51.566;6.776;2023-01-20T11:41:31;101173.38;;;2.06;94.14
9325;BME280;4701;51.566;6.776;2023-01-20T11:43:34;101170.88;;;2.04;94.82
9325;BME280;4701;51.566;6.776;2023-01-20T11:45:37;101170.03;;;1.97;93.98
9325;BME280;4701;51.566;6.776;2023-01-20T11:47:39;101167.22;;;2.12;93.91
9325;BME280;4701;51.566;6.776;2023-01-20T11:49:42;101169.25;;;2.10;93.97
9325;BME280;4701;51.566;6.776;2023-01-20T11:51:49;101172.53;;;2.05;93.33
9325;BME280;4701;51.566;6.776;2023-01-20T11:54:07;101164.88;;;1.96;92.94
9325;BME280;4701;51.566;6.776;2023-01-20T11:56:18;101167.13;;;1.92;93.05
9325;BME280;4701;51.566;6.776;2023-01-20T11:58:25;101169.59;;;1.87;92.92
9325;BME280;4701;51.566;6.776;2023-01-20T12:00:30;101158.84;;;1.87;92.99
9325;BME280;4701;51.566;6.776;2023-01-20T12:02:36;101164.44;;;1.92;92.92
9325;BME280;4701;51.566;6.776;2023-01-20T12:04:46;101170.19;;;1.89;92.21
9325;BME280;4701;51.566;6.776;2023-01-20T12:06:53;101162.50;;;1.79;92.54
9325;BME280;4701;51.566;6.776;2023-01-20T12:08:59;101159.25;;;1.90;92.34
9325;BME280;4701;51.566;6.776;2023-01-20T12:11:06;101168.13;;;1.84;92.05
9325;BME280;4701;51.566;6.776;2023-01-20T12:13:16;101168.75;;;1.86;92.46
9325;BME280;4701;51.566;6.776;2023-01-20T12:15:21;101166.31;;;1.98;91.65
9325;BME280;4701;51.566;6.776;2023-01-20T12:17:39;101168.81;;;2.00;91.38
9325;BME280;4701;51.566;6.776;2023-01-20T12:19:58;101159.53;;;2.09;91.52
9325;BME280;4701;51.566;6.776;2023-01-20T12:22:11;101167.59;;;2.09;92.16
9325;BME280;4701;51.566;6.776;2023-01-20T12:24:19;101169.50;;;2.21;92.66
9325;BME280;4701;51.566;6.776;2023-01-20T12:26:24;101171.03;;;2.37;92.42
9325;BME280;4701;51.566;6.776;2023-01-20T12:28:36;101169.19;;;2.44;91.46
9325;BME280;4701;51.566;6.776;2023-01-20T12:30:45;101172.72;;;2.51;91.24
9325;BME280;4701;51.566;6.776;2023-01-20T12:32:51;101173.47;;;2.39;90.37
9325;BME280;4701;51.566;6.776;2023-01-20T12:34:54;101180.34;;;2.48;90.67
9325;BME280;4701;51.566;6.776;2023-01-20T12:37:11;101171.22;;;2.42;90.32
9325;BME280;4701;51.566;6.776;2023-01-20T12:39:28;101168.56;;;2.49;90.91
9325;BME280;4701;51.566;6.776;2023-01-20T12:41:46;101184.09;;;2.53;90.16
9325;BME280;4701;51.566;6.776;2023-01-20T12:43:55;101188.84;;;2.58;89.70
9325;BME280;4701;51.566;6.776;2023-01-20T12:46:17;101183.47;;;2.51;89.45
9325;BME280;4701;51.566;6.776;2023-01-20T12:48:33;101179.75;;;2.52;90.40
9325;BME280;4701;51.566;6.776;2023-01-20T12:50:51;101177.47;;;2.56;90.65
9325;BME280;4701;51.566;6.776;2023-01-20T12:53:10;101175.66;;;2.63;90.11
9325;BME280;4701;51.566;6.776;2023-01-20T12:55:25;101185.19;;;2.72;89.57
9325;BME280;4701;51.566;6.776;2023-01-20T12:57:40;101170.03;;;2.64;89.11
9325;BME280;4701;51.566;6.776;2023-01-20T12:59:51;101181.03;;;2.70;89.45
9325;BME280;4701;51.566;6.776;2023-01-20T13:02:16;101180.59;;;2.66;88.87
9325;BME280;4701;51.566;6.776;2023-01-20T13:07:04;101180.41;;;2.67;89.05
9325;BME280;4701;51.566;6.776;2023-01-20T13:09:33;101191.78;;;2.70;89.04
9325;BME280;4701;51.566;6.776;2023-01-20T13:11:51;101184.13;;;2.66;89.06
9325;BME280;4701;51.566;6.776;2023-01-20T13:14:07;101187.25;;;2.70;89.38
9325;BME280;4701;51.566;6.776;2023-01-20T13:16:17;101189.75;;;2.72;89.07
9325;BME280;4701;51.566;6.776;2023-01-20T13:18:32;101200.91;;;2.69;88.88
9325;BME280;4701;51.566;6.776;2023-01-20T13:20:43;101198.66;;;2.72;88.83
9325;BME280;4701;51.566;6.776;2023-01-20T13:22:46;101196.16;;;2.71;88.52
9325;BME280;4701;51.566;6.776;2023-01-20T13:24:50;101194.28;;;2.71;88.46
9325;BME280;4701;51.566;6.776;2023-01-20T13:26:54;101193.47;;;2.71;88.18
9325;BME280;4701;51.566;6.776;2023-01-20T13:28:57;101196.16;;;2.71;88.83
9325;BME280;4701;51.566;6.776;2023-01-20T13:31:28;101195.53;;;2.75;88.33
9325;BME280;4701;51.566;6.776;2023-01-20T13:33:36;101195.94;;;2.72;88.00
9325;BME280;4701;51.566;6.776;2023-01-20T13:35:48;101199.44;;;2.73;88.28
9325;BME280;4701;51.566;6.776;2023-01-20T13:37:51;101198.22;;;2.75;88.06
9325;BME280;4701;51.566;6.776;2023-01-20T13:39:55;101211.47;;;2.70;88.23
9325;BME280;4701;51.566;6.776;2023-01-20T13:41:59;101209.59;;;2.71;88.39
9325;BME280;4701;51.566;6.776;2023-01-20T13:44:24;101211.66;;;2.69;88.54
9325;BME280;4701;51.566;6.776;2023-01-20T13:46:43;101221.81;;;2.66;87.33
9325;BME280;4701;51.566;6.776;2023-01-20T13:49:10;101214.34;;;2.69;86.93
9325;BME280;4701;51.566;6.776;2023-01-20T13:51:42;101217.88;;;2.69;87.06
9325;BME280;4701;51.566;6.776;2023-01-20T13:53:45;101218.72;;;2.70;86.89
9325;BME280;4701;51.566;6.776;2023-01-20T13:55:55;101221.81;;;2.66;86.81
9325;BME280;4701;51.566;6.776;2023-01-20T13:57:58;101219.75;;;2.69;87.11
9325;BME280;4701;51.566;6.776;2023-01-20T13:59:59;101217.06;;;2.69;87.09
9325;BME280;4701;51.566;6.776;2023-01-20T14:02:17;101219.94;;;2.74;86.70
9325;BME280;4701;51.566;6.776;2023-01-20T14:04:19;101220.78;;;2.74;87.34
9325;BME280;4701;51.566;6.776;2023-01-20T14:06:22;101231.78;;;2.79;87.07
9325;BME280;4701;51.566;6.776;2023-01-20T14:08:27;101233.22;;;2.82;86.55
9325;BME280;4701;51.566;6.776;2023-01-20T14:10:30;101238.00;;;2.80;87.02
9325;BME280;4701;51.566;6.776;2023-01-20T14:12:38;101238.19;;;2.85;86.53
9325;BME280;4701;51.566;6.776;2023-01-20T14:14:41;101240.69;;;2.80;86.31
9325;BME280;4701;51.566;6.776;2023-01-20T14:16:43;101243.34;;;2.73;86.20
9325;BME280;4701;51.566;6.776;2023-01-20T14:18:47;101245.66;;;2.83;85.52
9325;BME280;4701;51.566;6.776;2023-01-20T14:20:57;101251.03;;;2.76;85.82
9325;BME280;4701;51.566;6.776;2023-01-20T14:23:26;101249.56;;;2.74;86.12
9325;BME280;4701;51.566;6.776;2023-01-20T14:25:28;101249.16;;;2.70;86.58
9325;BME280;4701;51.566;6.776;2023-01-20T14:27:32;101256.81;;;2.73;87.07
9325;BME280;4701;51.566;6.776;2023-01-20T14:29:36;101257.63;;;2.67;86.46
9325;BME280;4701;51.566;6.776;2023-01-20T14:31:38;101260.13;;;2.69;86.43
9325;BME280;4701;51.566;6.776;2023-01-20T14:33:43;101259.47;;;2.66;85.67
9325;BME280;4701;51.566;6.776;2023-01-20T14:35:47;101262.78;;;2.62;85.82
9325;BME280;4701;51.566;6.776;2023-01-20T14:37:50;101268.78;;;2.64;85.18
9325;BME280;4701;51.566;6.776;2023-01-20T14:39:56;101271.44;;;2.57;85.05
9325;BME280;4701;51.566;6.776;2023-01-20T14:42:02;101274.97;;;2.58;85.59
9325;BME280;4701;51.566;6.776;2023-01-20T14:44:15;101278.50;;;2.58;85.64
9325;BME280;4701;51.566;6.776;2023-01-20T14:46:18;101289.25;;;2.58;85.72
9325;BME280;4701;51.566;6.776;2023-01-20T14:48:20;101283.28;;;2.63;85.83
9325;BME280;4701;51.566;6.776;2023-01-20T14:50:24;101291.56;;;2.61;85.94
9325;BME280;4701;51.566;6.776;2023-01-20T14:52:28;101295.69;;;2.64;86.04
9325;BME280;4701;51.566;6.776;2023-01-20T14:54:36;101294.88;;;2.63;86.37
9325;BME280;4701;51.566;6.776;2023-01-20T14:56:46;101297.34;;;2.58;85.95
9325;BME280;4701;51.566;6.776;2023-01-20T14:58:49;101302.09;;;2.56;85.92
9325;BME280;4701;51.566;6.776;2023-01-20T15:00:58;101303.75;;;2.57;85.79
9325;BME280;4701;51.566;6.776;2023-01-20T15:03:04;101309.78;;;2.59;86.17
9325;BME280;4701;51.566;6.776;2023-01-20T15:05:25;101313.47;;;2.58;85.51
9325;BME280;4701;51.566;6.776;2023-01-20T15:07:35;101324.63;;;2.49;85.69
9325;BME280;4701;51.566;6.776;2023-01-20T15:09:40;101328.59;;;2.53;84.98
9325;BME280;4701;51.566;6.776;2023-01-20T15:11:42;101324.81;;;2.47;85.31
9325;BME280;4701;51.566;6.776;2023-01-20T15:14:04;101328.16;;;2.56;84.84
9325;BME280;4701;51.566;6.776;2023-01-20T15:16:16;101335.19;;;2.50;84.83
9325;BME280;4701;51.566;6.776;2023-01-20T15:18:22;101335.56;;;2.47;85.10
9325;BME280;4701;51.566;6.776;2023-01-20T15:20:27;101342.41;;;2.43;84.37
9325;BME280;4701;51.566;6.776;2023-01-20T15:22:32;101343.63;;;2.41;84.99
9325;BME280;4701;51.566;6.776;2023-01-20T15:24:35;101345.47;;;2.40;84.97
9325;BME280;4701;51.566;6.776;2023-01-20T15:26:40;101344.44;;;2.41;85.06
9325;BME280;4701;51.566;6.776;2023-01-20T15:28:42;101352.94;;;2.38;85.28
9325;BME280;4701;51.566;6.776;2023-01-20T15:30:45;101349.78;;;2.35;85.64
9325;BME280;4701;51.566;6.776;2023-01-20T15:32:47;101348.13;;;2.34;85.50
9325;BME280;4701;51.566;6.776;2023-01-20T15:34:49;101361.13;;;2.30;85.35
9325;BME280;4701;51.566;6.776;2023-01-20T15:36:52;101358.25;;;2.32;84.76
9325;BME280;4701;51.566;6.776;2023-01-20T15:38:56;101368.19;;;2.31;84.93
9325;BME280;4701;51.566;6.776;2023-01-20T15:40:57;101368.19;;;2.31;84.46
9325;BME280;4701;51.566;6.776;2023-01-20T15:42:59;101373.31;;;2.26;84.84
9325;BME280;4701;51.566;6.776;2023-01-20T15:45:01;101383.03;;;2.20;84.88
9325;BME280;4701;51.566;6.776;2023-01-20T15:47:04;101378.06;;;2.24;85.15
9325;BME280;4701;51.566;6.776;2023-01-20T15:49:13;101384.63;;;2.15;84.72
9325;BME280;4701;51.566;6.776;2023-01-20T15:51:16;101387.31;;;2.15;84.45
9325;BME280;4701;51.566;6.776;2023-01-20T15:53:18;101394.00;;;2.25;84.07
9325;BME280;4701;51.566;6.776;2023-01-20T15:55:22;101398.34;;;2.20;83.99
9325;BME280;4701;51.566;6.776;2023-01-20T15:57:24;101408.69;;;2.23;84.35
9325;BME280;4701;51.566;6.776;2023-01-20T15:59:26;101400.41;;;2.24;83.99
9325;BME280;4701;51.566;6.776;2023-01-20T16:01:29;101407.69;;;2.31;83.15
9325;BME280;4701;51.566;6.776;2023-01-20T16:03:31;101404.78;;;2.25;82.85
9325;BME280;4701;51.566;6.776;2023-01-20T16:05:35;101420.88;;;2.19;83.54
9325;BME280;4701;51.566;6.776;2023-01-20T16:07:37;101416.31;;;2.19;83.30
9325;BME280;4701;51.566;6.776;2023-01-20T16:09:40;101421.69;;;2.19;83.28
9325;BME280;4701;51.566;6.776;2023-01-20T16:11:43;101422.78;;;2.25;83.20
9325;BME280;4701;51.566;6.776;2023-01-20T16:13:46;101428.78;;;2.27;83.24
9325;BME280;4701;51.566;6.776;2023-01-20T16:15:48;101426.47;;;2.24;82.20
9325;BME280;4701;51.566;6.776;2023-01-20T16:17:50;101439.06;;;2.17;82.15
9325;BME280;4701;51.566;6.776;2023-01-20T16:19:53;101434.28;;;2.12;82.63
9325;BME280;4701;51.566;6.776;2023-01-20T16:21:55;101442.25;;;2.06;82.89
9325;BME280;4701;51.566;6.776;2023-01-20T16:23:57;101444.63;;;2.15;82.50
9325;BME280;4701;51.566;6.776;2023-01-20T16:25:59;101450.13;;;2.07;82.45
9325;BME280;4701;51.566;6.776;2023-01-20T16:28:09;101458.56;;;2.04;82.44
9325;BME280;4701;51.566;6.776;2023-01-20T16:30:14;101461.16;;;2.12;82.74
9325;BME280;4701;51.566;6.776;2023-01-20T16:32:16;101470.16;;;2.05;82.31
9325;BME280;4701;51.566;6.776;2023-01-20T16:34:18;101464.59;;;2.06;82.47
9325;BME280;4701;51.566;6.776;2023-01-20T16:36:24;101477.41;;;2.04;81.97
9325;BME280;4701;51.566;6.776;2023-01-20T16:38:25;101469.09;;;1.99;82.52
9325;BME280;4701;51.566;6.776;2023-01-20T16:40:27;101480.44;;;1.95;82.01
9325;BME280;4701;51.566;6.776;2023-01-20T16:42:30;101485.72;;;1.88;82.02
9325;BME280;4701;51.566;6.776;2023-01-20T16:44:34;101483.38;;;1.78;82.86
9325;BME280;4701;51.566;6.776;2023-01-20T16:46:36;101484.91;;;1.66;82.38
9325;BME280;4701;51.566;6.776;2023-01-20T16:48:38;101498.81;;;1.55;82.91
9325;BME280;4701;51.566;6.776;2023-01-20T16:50:40;101496.34;;;1.39;83.36
9325;BME280;4701;51.566;6.776;2023-01-20T16:52:42;101495.63;;;1.30;84.34
9325;BME280;4701;51.566;6.776;2023-01-20T16:54:44;101497.22;;;1.25;84.50
9325;BME280;4701;51.566;6.776;2023-01-20T16:56:46;101501.03;;;1.16;84.98
9325;BME280;4701;51.566;6.776;2023-01-20T16:58:49;101504.81;;;1.06;85.26
9325;BME280;4701;51.566;6.776;2023-01-20T17:00:52;101511.56;;;1.02;85.82
9325;BME280;4701;51.566;6.776;2023-01-20T17:02:54;101515.66;;;0.98;85.85
9325;BME280;4701;51.566;6.776;2023-01-20T17:04:56;101514.72;;;0.91;85.97
9325;BME280;4701;51.566;6.776;2023-01-20T17:06:58;101524.34;;;0.86;85.69
9325;BME280;4701;51.566;6.776;2023-01-20T17:09:03;101521.38;;;0.81;86.15
9325;BME280;4701;51.566;6.776;2023-01-20T17:11:05;101534.03;;;0.72;86.56
9325;BME280;4701;51.566;6.776;2023-01-20T17:13:07;101535.81;;;0.65;86.88
9325;BME280;4701;51.566;6.776;2023-01-20T17:15:10;101547.28;;;0.59;86.70
9325;BME280;4701;51.566;6.776;2023-01-20T17:17:13;101553.34;;;0.53;87.71
9325;BME280;4701;51.566;6.776;2023-01-20T17:19:15;101559.09;;;0.50;88.26
9325;BME280;4701;51.566;6.776;2023-01-20T17:21:19;101561.63;;;0.43;88.14
9325;BME280;4701;51.566;6.776;2023-01-20T17:23:21;101566.72;;;0.38;88.55
9325;BME280;4701;51.566;6.776;2023-01-20T17:25:23;101562.06;;;0.32;89.44
9325;BME280;4701;51.566;6.776;2023-01-20T17:27:25;101566.13;;;0.28;89.51
9325;BME280;4701;51.566;6.776;2023-01-20T17:29:27;101567.69;;;0.22;89.59
9325;BME280;4701;51.566;6.776;2023-01-20T17:31:29;101582.66;;;0.17;90.08
9325;BME280;4701;51.566;6.776;2023-01-20T17:33:35;101581.50;;;0.11;90.79
9325;BME280;4701;51.566;6.776;2023-01-20T17:35:37;101587.41;;;0.07;91.21
9325;BME280;4701;51.566;6.776;2023-01-20T17:37:38;101589.75;;;0.02;91.02
9325;BME280;4701;51.566;6.776;2023-01-20T17:39:41;101587.63;;;-0.03;91.39
9325;BME280;4701;51.566;6.776;2023-01-20T17:41:43;101595.16;;;-0.07;91.86
9325;BME280;4701;51.566;6.776;2023-01-20T17:43:45;101594.53;;;-0.17;92.53
9325;BME280;4701;51.566;6.776;2023-01-20T17:45:47;101594.25;;;-0.22;92.72
9325;BME280;4701;51.566;6.776;2023-01-20T17:47:49;101599.47;;;-0.28;93.39
9325;BME280;4701;51.566;6.776;2023-01-20T17:49:53;101600.66;;;-0.31;94.12
9325;BME280;4701;51.566;6.776;2023-01-20T17:51:55;101609.03;;;-0.34;94.37
9325;BME280;4701;51.566;6.776;2023-01-20T17:53:57;101608.56;;;-0.38;94.44
9325;BME280;4701;51.566;6.776;2023-01-20T17:55:59;101611.56;;;-0.41;94.95
9325;BME280;4701;51.566;6.776;2023-01-20T17:58:01;101620.81;;;-0.43;95.01
9325;BME280;4701;51.566;6.776;2023-01-20T18:00:03;101618.81;;;-0.49;94.96
9325;BME280;4701;51.566;6.776;2023-01-20T18:02:07;101620.00;;;-0.52;95.28
9325;BME280;4701;51.566;6.776;2023-01-20T18:04:09;101639.78;;;-0.61;95.98
9325;BME280;4701;51.566;6.776;2023-01-20T18:06:14;101637.44;;;-0.64;96.30
9325;BME280;4701;51.566;6.776;2023-01-20T18:08:16;101636.78;;;-0.66;96.48
9325;BME280;4701;51.566;6.776;2023-01-20T18:10:17;101645.81;;;-0.67;97.00
9325;BME280;4701;51.566;6.776;2023-01-20T18:12:19;101654.84;;;-0.68;96.73
9325;BME280;4701;51.566;6.776;2023-01-20T18:14:21;101659.38;;;-0.68;97.15
9325;BME280;4701;51.566;6.776;2023-01-20T18:16:26;101663.41;;;-0.72;96.90
9325;BME280;4701;51.566;6.776;2023-01-20T18:18:28;101663.56;;;-0.74;97.26
9325;BME280;4701;51.566;6.776;2023-01-20T18:20:30;101662.88;;;-0.76;97.32
9325;BME280;4701;51.566;6.776;2023-01-20T18:22:33;101666.09;;;-0.81;96.90
9325;BME280;4701;51.566;6.776;2023-01-20T18:24:35;101669.09;;;-0.84;97.31
9325;BME280;4701;51.566;6.776;2023-01-20T18:26:39;101667.94;;;-0.89;97.24
9325;BME280;4701;51.566;6.776;2023-01-20T18:28:43;101674.81;;;-0.95;97.63